Time;durP1;ratioP1;P1;durP2;ratioP2;P2;SDS_P1;SDS_P2;PMS_P1;PMS_P2;Temp;Humidity;BMP_temperature;BMP_pressure;BME280_temperature;BME280_humidity;BME280_pressure;Samples;Min_cycle;Max_cycle;Signal;HPM_P1;HPM_P2
2022/01/29 00:00:13;;;;;;;16.20;6.85;;;8.70;58.60;;;;;;6261494;22;20006;-58
2022/01/29 00:02:40;;;;;;;14.48;6.70;;;8.70;58.70;;;;;;6235440;22;20351;-56
2022/01/29 00:05:07;;;;;;;14.57;6.45;;;8.70;58.70;;;;;;6263284;22;20280;-58
2022/01/29 00:07:33;;;;;;;17.05;6.57;;;8.80;58.70;;;;;;6265195;22;20333;-58
2022/01/29 00:10:04;;;;;;;12.98;7.13;;;8.70;58.70;;;;;;6266219;22;19996;-58
2022/01/29 00:12:31;;;;;;;15.10;7.10;;;8.80;58.70;;;;;;6276547;22;20369;-56
2022/01/29 00:14:58;;;;;;;14.30;6.15;;;8.80;58.70;;;;;;6265016;22;20004;-57
2022/01/29 00:17:25;;;;;;;12.77;6.72;;;8.80;58.80;;;;;;6266309;22;20019;-58
2022/01/29 00:19:51;;;;;;;13.43;6.32;;;8.80;58.80;;;;;;6265655;22;20003;-56
2022/01/29 00:22:18;;;;;;;16.88;6.80;;;8.80;58.80;;;;;;6266038;22;19999;-58
2022/01/29 00:24:44;;;;;;;17.40;6.75;;;8.80;58.80;;;;;;6264385;22;20471;-57
2022/01/29 00:27:11;;;;;;;15.75;7.72;;;8.80;58.80;;;;;;6264252;22;20000;-58
2022/01/29 00:29:40;;;;;;;18.20;6.68;;;8.80;58.80;;;;;;6263884;22;20336;-58
2022/01/29 00:32:08;;;;;;;16.42;7.10;;;8.90;59.30;;;;;;6266105;22;20007;-58
2022/01/29 00:34:34;;;;;;;18.48;7.60;;;8.80;58.80;;;;;;6265239;22;20000;-58
2022/01/29 00:37:01;;;;;;;11.93;6.32;;;8.90;58.80;;;;;;6266483;22;19996;-56
2022/01/29 00:39:27;;;;;;;20.58;7.50;;;8.90;58.80;;;;;;6264777;22;20011;-59
2022/01/29 00:41:54;;;;;;;15.85;7.50;;;8.90;58.90;;;;;;6263620;22;20006;-57
2022/01/29 00:44:20;;;;;;;16.42;6.47;;;8.90;58.80;;;;;;6264631;22;20003;-57
2022/01/29 00:46:47;;;;;;;21.48;7.78;;;8.90;58.80;;;;;;6266206;22;20007;-57
2022/01/29 00:49:13;;;;;;;17.58;7.22;;;8.90;58.90;;;;;;6266217;22;20003;-57
2022/01/29 00:51:40;;;;;;;15.57;7.07;;;8.90;58.90;;;;;;6229520;22;20020;-58
2022/01/29 00:54:07;;;;;;;11.90;6.93;;;8.90;58.90;;;;;;6203425;23;20016;-56
2022/01/29 00:56:34;;;;;;;16.90;7.85;;;8.90;58.90;;;;;;6204516;23;20004;-59
2022/01/29 00:59:00;;;;;;;16.90;7.50;;;8.90;58.90;;;;;;6176720;23;20267;-58
2022/01/29 01:01:26;;;;;;;15.70;7.55;;;8.90;58.90;;;;;;6203376;23;20019;-59
2022/01/29 01:03:53;;;;;;;20.52;8.60;;;8.90;58.90;;;;;;6204101;23;20001;-58
2022/01/29 01:06:19;;;;;;;16.60;8.05;;;8.90;58.90;;;;;;6205530;23;20007;-58
2022/01/29 01:08:45;;;;;;;18.40;7.60;;;8.90;58.90;;;;;;6204696;23;20008;-58
2022/01/29 01:11:12;;;;;;;18.15;7.82;;;9.00;59.00;;;;;;6178002;23;20004;-58
2022/01/29 01:13:38;;;;;;;16.25;7.47;;;8.90;58.90;;;;;;6203765;23;20015;-58
2022/01/29 01:16:04;;;;;;;20.25;8.38;;;8.90;58.90;;;;;;6204830;23;20387;-58
2022/01/29 01:18:31;;;;;;;18.58;8.65;;;8.90;58.90;;;;;;6203868;23;20012;-58
2022/01/29 01:20:57;;;;;;;17.52;7.78;;;9.00;59.00;;;;;;6203861;23;20001;-58
2022/01/29 01:23:23;;;;;;;21.00;8.05;;;8.90;59.00;;;;;;6175150;23;20012;-56
2022/01/29 01:25:49;;;;;;;20.20;7.93;;;9.00;59.10;;;;;;6204941;23;20247;-56
2022/01/29 01:28:15;;;;;;;21.48;9.00;;;9.00;59.10;;;;;;6204008;23;20514;-59
2022/01/29 01:30:42;;;;;;;23.98;8.10;;;8.90;59.00;;;;;;6205229;23;20000;-56
2022/01/29 01:33:08;;;;;;;21.75;8.85;;;9.00;59.10;;;;;;6204080;23;20004;-56
2022/01/29 01:35:44;;;;;;;18.33;8.43;;;9.00;59.10;;;;;;6204461;23;20000;-58
2022/01/29 01:38:19;;;;;;;24.85;9.68;;;9.00;59.10;;;;;;6203304;23;20000;-59
2022/01/29 01:40:50;;;;;;;20.00;8.90;;;9.00;59.10;;;;;;6203963;23;20187;-58
2022/01/29 01:43:17;;;;;;;19.42;8.90;;;9.00;59.10;;;;;;6201382;23;20453;-59
2022/01/29 01:45:43;;;;;;;17.10;8.18;;;9.00;59.10;;;;;;6205313;23;20012;-56
2022/01/29 01:48:10;;;;;;;18.48;9.05;;;9.00;59.10;;;;;;6204614;23;20005;-59
2022/01/29 01:50:36;;;;;;;23.15;8.45;;;9.10;59.10;;;;;;6205383;22;20461;-58
2022/01/29 01:53:04;;;;;;;21.10;9.10;;;9.00;59.10;;;;;;6151912;23;20445;-58
2022/01/29 01:55:31;;;;;;;20.35;8.85;;;9.10;59.20;;;;;;6204623;23;19993;-58
2022/01/29 01:57:58;;;;;;;20.85;9.38;;;9.10;59.10;;;;;;6204671;23;20001;-59
2022/01/29 02:00:25;;;;;;;19.52;9.30;;;9.10;59.10;;;;;;6202927;23;20003;-57
2022/01/29 02:02:52;;;;;;;19.70;9.18;;;9.10;59.10;;;;;;6176246;23;20001;-56
2022/01/29 02:05:19;;;;;;;21.27;10.43;;;9.10;59.10;;;;;;6205235;23;20406;-58
2022/01/29 02:07:47;;;;;;;21.88;9.50;;;9.10;59.10;;;;;;6203923;23;20334;-57
2022/01/29 02:10:14;;;;;;;21.23;9.00;;;9.10;59.10;;;;;;6203971;23;20004;-58
2022/01/29 02:12:53;;;;;;;24.40;10.13;;;9.10;59.10;;;;;;6203141;23;20004;-58
2022/01/29 02:15:20;;;;;;;19.27;9.32;;;9.10;59.10;;;;;;6173885;23;20000;-57
2022/01/29 02:17:47;;;;;;;18.95;9.30;;;9.10;59.10;;;;;;6204594;23;20004;-58
2022/01/29 02:20:16;;;;;;;19.77;9.27;;;9.10;59.10;;;;;;6203405;23;19997;-56
2022/01/29 02:22:43;;;;;;;20.42;8.55;;;9.10;59.10;;;;;;6200781;23;20016;-58
2022/01/29 02:25:29;;;;;;;19.27;9.55;;;9.10;59.10;;;;;;6203611;23;20008;-58
2022/01/29 02:28:00;;;;;;;19.40;8.82;;;9.10;59.10;;;;;;6203398;23;20000;-58
2022/01/29 02:30:32;;;;;;;17.17;8.50;;;9.20;59.10;;;;;;6202762;23;20005;-55
2022/01/29 02:32:59;;;;;;;21.35;9.18;;;9.20;59.20;;;;;;6202463;23;20004;-57
2022/01/29 02:35:27;;;;;;;19.38;9.70;;;9.20;59.20;;;;;;6177128;23;20009;-58
2022/01/29 02:37:54;;;;;;;18.48;9.20;;;9.20;59.10;;;;;;6200460;23;20414;-58
2022/01/29 02:40:24;;;;;;;18.80;8.60;;;9.20;59.10;;;;;;6202350;23;20011;-57
2022/01/29 02:42:53;;;;;;;17.60;9.07;;;9.20;59.10;;;;;;6201633;23;20009;-58
2022/01/29 02:45:20;;;;;;;19.90;9.50;;;9.20;59.10;;;;;;6202059;23;20008;-57
2022/01/29 02:47:46;;;;;;;17.95;9.52;;;9.20;59.10;;;;;;6205566;23;20359;-56
2022/01/29 02:50:12;;;;;;;18.67;9.63;;;9.20;59.10;;;;;;6203205;23;20200;-56
2022/01/29 02:52:39;;;;;;;16.00;9.38;;;9.20;59.10;;;;;;6202464;23;20016;-58
2022/01/29 02:55:06;;;;;;;18.50;8.85;;;9.20;59.00;;;;;;6176349;23;20008;-58
2022/01/29 02:57:32;;;;;;;16.73;9.25;;;9.20;59.00;;;;;;6204961;23;19997;-57
2022/01/29 03:00:00;;;;;;;16.70;9.32;;;9.20;59.00;;;;;;6202554;23;20007;-59
2022/01/29 03:02:29;;;;;;;20.42;8.93;;;9.20;59.10;;;;;;6202300;23;20012;-57
2022/01/29 03:04:57;;;;;;;21.20;9.75;;;9.20;59.10;;;;;;6202568;23;20005;-59
2022/01/29 03:07:24;;;;;;;19.15;9.07;;;9.20;59.10;;;;;;6202209;23;20336;-59
2022/01/29 03:09:50;;;;;;;17.75;8.52;;;9.20;59.00;;;;;;6176359;23;19993;-58
2022/01/29 03:12:16;;;;;;;20.48;9.60;;;9.20;58.90;;;;;;6202891;23;20016;-58
2022/01/29 03:14:42;;;;;;;18.52;9.02;;;9.20;58.80;;;;;;6201286;23;20030;-55
2022/01/29 03:17:08;;;;;;;16.33;9.05;;;9.20;58.80;;;;;;6204022;23;20003;-59
2022/01/29 03:19:34;;;;;;;16.77;9.25;;;9.30;58.80;;;;;;6203581;23;20000;-57
2022/01/29 03:22:01;;;;;;;20.45;9.82;;;9.20;58.80;;;;;;6203647;23;20437;-58
2022/01/29 03:24:27;;;;;;;19.00;9.68;;;9.30;58.90;;;;;;6202566;23;20167;-58
2022/01/29 03:26:53;;;;;;;18.48;9.27;;;9.30;58.80;;;;;;6204014;23;20004;-57
2022/01/29 03:29:19;;;;;;;22.75;9.10;;;9.30;58.80;;;;;;6202055;23;20007;-56
2022/01/29 03:31:45;;;;;;;18.27;9.23;;;9.30;58.70;;;;;;6202851;23;20027;-56
2022/01/29 03:34:11;;;;;;;19.08;9.30;;;9.30;58.70;;;;;;6174391;23;20008;-57
2022/01/29 03:36:37;;;;;;;20.25;9.18;;;9.30;58.60;;;;;;6203764;23;20011;-57
2022/01/29 03:39:04;;;;;;;19.10;8.90;;;9.30;58.60;;;;;;6203719;23;20322;-58
2022/01/29 03:41:30;;;;;;;21.73;9.40;;;9.30;58.50;;;;;;6201630;23;20008;-56
2022/01/29 03:44:02;;;;;;;18.50;8.40;;;9.30;58.50;;;;;;6200180;23;20009;-57
2022/01/29 03:46:28;;;;;;;23.73;10.60;;;9.30;58.40;;;;;;6204312;23;20008;-58
2022/01/29 03:48:54;;;;;;;20.65;9.68;;;9.30;58.40;;;;;;6204954;23;20009;-59
2022/01/29 03:51:20;;;;;;;25.13;9.85;;;9.30;58.40;;;;;;6206358;23;20012;-57
2022/01/29 03:53:47;;;;;;;17.48;9.05;;;9.30;58.50;;;;;;6204600;23;20314;-59
2022/01/29 03:56:14;;;;;;;15.73;8.07;;;9.30;58.60;;;;;;6177551;23;20004;-58
2022/01/29 03:58:40;;;;;;;17.52;8.60;;;9.30;58.70;;;;;;6200942;23;20000;-59
2022/01/29 04:01:06;;;;;;;16.38;9.25;;;9.40;58.80;;;;;;6203205;23;20012;-58
2022/01/29 04:03:32;;;;;;;18.35;9.52;;;9.30;58.80;;;;;;6205207;23;20008;-56
2022/01/29 04:05:58;;;;;;;15.88;8.60;;;9.30;58.90;;;;;;6205764;23;20445;-58
2022/01/29 04:08:25;;;;;;;15.52;8.60;;;9.30;58.90;;;;;;6204983;23;20005;-58
2022/01/29 04:10:52;;;;;;;17.50;9.40;;;9.30;59.00;;;;;;6203826;23;20021;-57
2022/01/29 04:13:23;;;;;;;17.80;8.52;;;9.30;59.00;;;;;;6202121;23;20422;-58
2022/01/29 04:15:49;;;;;;;21.30;9.52;;;9.30;59.10;;;;;;6213371;23;20007;-57
2022/01/29 04:18:16;;;;;;;25.05;9.70;;;9.30;59.20;;;;;;6202452;23;20019;-56
2022/01/29 04:20:44;;;;;;;18.88;9.23;;;9.30;59.30;;;;;;6202990;23;20422;-58
2022/01/29 04:23:10;;;;;;;18.17;9.63;;;9.30;59.40;;;;;;6203818;23;20001;-56
2022/01/29 04:25:36;;;;;;;18.42;9.80;;;9.30;59.50;;;;;;6204998;23;19997;-56
2022/01/29 04:28:04;;;;;;;15.93;9.57;;;9.30;59.60;;;;;;6206343;23;20001;-57
2022/01/29 04:30:33;;;;;;;25.45;10.48;;;9.30;60.30;;;;;;6204329;23;20318;-58
2022/01/29 04:33:15;;;;;;;22.33;9.73;;;9.30;59.80;;;;;;6203836;23;20019;-55
2022/01/29 04:35:41;;;;;;;18.10;10.00;;;9.30;60.00;;;;;;6215635;23;20482;-58
2022/01/29 04:38:07;;;;;;;21.75;10.10;;;9.30;60.00;;;;;;6177264;23;20005;-55
2022/01/29 04:40:35;;;;;;;19.83;9.93;;;9.30;60.20;;;;;;6205650;23;20007;-58
2022/01/29 04:43:05;;;;;;;19.33;9.77;;;9.30;60.30;;;;;;6204186;23;20019;-56
2022/01/29 04:45:31;;;;;;;19.90;9.40;;;9.30;60.50;;;;;;6206067;23;20052;-56
2022/01/29 04:47:58;;;;;;;25.00;9.65;;;9.30;60.60;;;;;;6206243;23;19996;-57
2022/01/29 04:50:25;;;;;;;18.65;8.93;;;9.30;60.60;;;;;;6206108;23;20008;-57
2022/01/29 04:52:51;;;;;;;19.85;9.10;;;9.30;60.80;;;;;;6216077;23;20425;-58
2022/01/29 04:55:17;;;;;;;20.83;9.57;;;9.30;60.80;;;;;;6205025;23;20000;-56
2022/01/29 04:57:43;;;;;;;17.13;9.13;;;9.30;60.90;;;;;;6205271;23;20007;-58
2022/01/29 05:00:19;;;;;;;18.73;8.57;;;9.30;60.90;;;;;;6205182;23;20004;-56
2022/01/29 05:02:49;;;;;;;17.33;8.60;;;9.30;60.90;;;;;;6214325;23;20422;-57
2022/01/29 05:05:16;;;;;;;16.35;8.68;;;9.30;61.00;;;;;;6205816;23;19993;-57
2022/01/29 05:07:42;;;;;;;16.67;9.13;;;9.30;60.90;;;;;;6206117;23;19996;-58
2022/01/29 05:10:09;;;;;;;14.60;8.23;;;9.30;61.00;;;;;;6205541;23;20005;-58
2022/01/29 05:15:20;;;;;;;18.48;8.52;;;9.30;61.10;;;;;;6213252;23;20023;-56
2022/01/29 05:28:45;;;;;;;14.02;8.18;;;9.30;61.30;;;;;;6243154;23;20329;-58
2022/01/29 05:31:12;;;;;;;13.55;7.80;;;9.30;61.30;;;;;;6233992;23;20000;-57
2022/01/29 05:33:38;;;;;;;16.13;7.72;;;9.30;61.40;;;;;;6234417;23;20023;-55
2022/01/29 05:36:04;;;;;;;17.20;8.02;;;9.30;61.50;;;;;;6235093;23;19997;-58
2022/01/29 05:38:30;;;;;;;17.35;8.18;;;9.30;61.70;;;;;;6230926;22;20012;-57
2022/01/29 05:40:57;;;;;;;15.45;7.55;;;9.30;61.80;;;;;;6232019;23;20139;-56
2022/01/29 05:43:23;;;;;;;15.85;7.72;;;9.30;61.90;;;;;;6232136;23;20349;-58
2022/01/29 05:45:49;;;;;;;14.48;7.88;;;9.30;62.00;;;;;;6234028;23;20317;-55
2022/01/29 05:48:16;;;;;;;17.67;7.85;;;9.30;62.10;;;;;;6234685;23;20003;-58
2022/01/29 05:50:42;;;;;;;15.68;7.93;;;9.30;62.20;;;;;;6240821;22;20462;-58
2022/01/29 05:53:08;;;;;;;15.73;7.00;;;9.30;62.30;;;;;;6265314;22;20004;-56
2022/01/29 05:55:34;;;;;;;14.15;7.43;;;9.30;62.30;;;;;;6265483;22;20639;-58
2022/01/29 05:58:00;;;;;;;18.58;7.25;;;9.30;62.30;;;;;;6265347;22;20317;-58
2022/01/29 06:00:27;;;;;;;14.13;6.50;;;9.30;62.40;;;;;;6264588;22;20003;-56
2022/01/29 06:03:05;;;;;;;11.52;6.22;;;9.30;62.50;;;;;;6265878;22;20573;-57
2022/01/29 06:05:31;;;;;;;14.05;7.18;;;9.30;62.70;;;;;;6265701;22;19995;-57
2022/01/29 06:07:58;;;;;;;11.35;6.60;;;9.30;62.60;;;;;;6264866;22;20015;-58
2022/01/29 06:10:25;;;;;;;12.15;7.13;;;9.30;62.80;;;;;;6263273;22;20011;-56
2022/01/29 06:13:08;;;;;;;13.35;6.47;;;9.30;62.80;;;;;;6265402;22;20329;-57
2022/01/29 06:15:39;;;;;;;11.73;6.10;;;9.30;63.00;;;;;;6275566;22;19992;-57
2022/01/29 06:18:06;;;;;;;10.68;5.78;;;9.30;62.90;;;;;;6265598;22;20417;-58
2022/01/29 06:20:33;;;;;;;13.05;6.80;;;9.30;62.90;;;;;;6266170;22;20022;-56
2022/01/29 06:22:59;;;;;;;10.10;5.88;;;9.40;63.10;;;;;;6264591;22;20007;-57
2022/01/29 06:25:25;;;;;;;14.32;6.53;;;9.40;63.10;;;;;;6262601;22;20437;-59
2022/01/29 06:27:51;;;;;;;12.50;6.18;;;9.30;63.10;;;;;;6263124;22;20750;-58
2022/01/29 06:30:18;;;;;;;13.82;6.88;;;9.40;63.30;;;;;;6261908;22;20437;-57
2022/01/29 06:32:44;;;;;;;12.75;5.75;;;9.30;63.30;;;;;;6259705;22;20314;-58
2022/01/29 06:35:11;;;;;;;9.68;5.55;;;9.30;63.30;;;;;;6262823;22;20463;-58
2022/01/29 06:37:37;;;;;;;10.52;5.80;;;9.40;63.50;;;;;;6264777;22;20007;-58
2022/01/29 06:40:04;;;;;;;12.32;5.75;;;9.40;63.60;;;;;;6264871;22;20000;-58
2022/01/29 06:42:30;;;;;;;10.13;5.78;;;9.40;63.60;;;;;;6260581;22;20352;-58
2022/01/29 06:44:56;;;;;;;8.82;5.20;;;9.40;63.70;;;;;;6234330;22;20007;-56
2022/01/29 06:47:22;;;;;;;15.65;8.38;;;9.40;63.70;;;;;;6235736;22;20242;-57
2022/01/29 06:49:50;;;;;;;29.00;13.07;;;9.40;63.70;;;;;;6261570;22;19996;-58
2022/01/29 06:52:16;;;;;;;20.70;9.38;;;9.40;63.80;;;;;;6260088;22;20011;-58
2022/01/29 06:54:42;;;;;;;85.78;36.97;;;9.40;63.80;;;;;;6263498;22;20004;-58
2022/01/29 06:57:08;;;;;;;49.25;25.88;;;9.40;63.90;;;;;;6262291;22;20007;-57
2022/01/29 06:59:35;;;;;;;29.20;18.05;;;9.40;63.90;;;;;;6261940;22;20007;-59
2022/01/29 07:02:01;;;;;;;17.45;10.55;;;9.40;64.00;;;;;;6262962;22;20255;-58
2022/01/29 07:04:27;;;;;;;13.80;7.78;;;9.40;64.10;;;;;;6263709;22;20003;-56
2022/01/29 07:06:54;;;;;;;11.73;7.72;;;9.40;64.10;;;;;;6237722;22;20000;-57
2022/01/29 07:09:20;;;;;;;14.02;8.00;;;9.40;64.20;;;;;;6263694;22;19996;-58
2022/01/29 07:11:47;;;;;;;6.93;4.70;;;9.40;64.30;;;;;;6265074;22;20007;-58
2022/01/29 07:14:17;;;;;;;8.35;5.55;;;9.40;64.30;;;;;;6260511;22;20346;-58
2022/01/29 07:16:43;;;;;;;6.75;4.03;;;9.40;64.40;;;;;;6264718;22;20006;-57
2022/01/29 07:19:10;;;;;;;8.70;4.47;;;9.40;64.40;;;;;;6264090;22;20003;-57
2022/01/29 07:21:37;;;;;;;9.40;4.47;;;9.40;64.40;;;;;;6264860;22;20014;-57
2022/01/29 07:24:04;;;;;;;9.05;4.57;;;9.40;64.40;;;;;;6262862;22;20003;-57
2022/01/29 07:26:31;;;;;;;5.65;4.18;;;9.40;64.40;;;;;;6263858;22;19995;-58
2022/01/29 07:28:57;;;;;;;7.10;3.72;;;9.40;64.40;;;;;;6261761;22;20003;-58
2022/01/29 07:31:23;;;;;;;7.07;4.25;;;9.40;64.50;;;;;;6264808;22;20012;-58
2022/01/29 07:33:50;;;;;;;5.72;4.07;;;9.40;64.50;;;;;;6263877;22;20760;-57
2022/01/29 07:36:16;;;;;;;5.35;3.00;;;9.40;64.50;;;;;;6236653;22;20417;-57
2022/01/29 07:38:43;;;;;;;7.47;3.47;;;9.40;64.50;;;;;;6263707;22;19999;-57
2022/01/29 07:41:09;;;;;;;5.65;2.97;;;9.40;64.50;;;;;;6264389;22;20133;-59
2022/01/29 07:43:35;;;;;;;5.28;2.60;;;9.40;64.50;;;;;;6261900;22;20000;-59
2022/01/29 07:46:02;;;;;;;5.95;3.10;;;9.50;64.60;;;;;;6263974;22;19999;-57
2022/01/29 07:48:28;;;;;;;4.63;2.50;;;9.50;64.60;;;;;;6262924;22;20333;-59
2022/01/29 07:50:54;;;;;;;6.93;2.83;;;9.50;64.60;;;;;;6264647;22;20016;-58
2022/01/29 07:53:20;;;;;;;6.30;2.30;;;9.50;64.60;;;;;;6236143;22;20004;-57
2022/01/29 07:55:46;;;;;;;6.35;2.38;;;9.50;64.60;;;;;;6264035;22;20000;-57
2022/01/29 07:58:12;;;;;;;3.85;2.40;;;9.50;64.60;;;;;;6259165;22;20000;-59
2022/01/29 08:00:39;;;;;;;3.08;2.28;;;9.50;64.60;;;;;;6233409;22;20038;-58
2022/01/29 08:03:05;;;;;;;3.78;2.47;;;9.50;64.60;;;;;;6261440;22;20003;-59
2022/01/29 08:05:33;;;;;;;4.72;3.10;;;9.50;64.50;;;;;;6263873;22;20015;-59
2022/01/29 08:07:59;;;;;;;3.90;2.30;;;9.60;64.60;;;;;;6262689;22;20011;-57
2022/01/29 08:10:25;;;;;;;6.78;3.00;;;9.60;64.50;;;;;;6260410;22;19996;-56
2022/01/29 08:12:52;;;;;;;4.13;3.10;;;9.60;64.50;;;;;;6230882;22;20000;-59
2022/01/29 08:15:18;;;;;;;3.90;2.03;;;9.60;64.40;;;;;;6260190;22;20003;-59
2022/01/29 08:17:44;;;;;;;3.35;2.13;;;9.60;64.30;;;;;;6263583;22;19999;-59
2022/01/29 08:20:12;;;;;;;2.75;1.88;;;9.60;64.20;;;;;;6263674;22;20004;-57
2022/01/29 08:22:38;;;;;;;3.90;2.33;;;9.70;64.30;;;;;;6261272;22;20011;-59
2022/01/29 08:25:05;;;;;;;3.97;3.17;;;9.60;64.20;;;;;;6234831;22;20000;-59
2022/01/29 08:27:31;;;;;;;4.07;2.90;;;9.70;64.30;;;;;;6264618;22;19995;-58
2022/01/29 08:29:57;;;;;;;4.55;2.83;;;9.70;64.20;;;;;;6260746;22;20008;-59
2022/01/29 08:32:24;;;;;;;15.90;9.55;;;9.70;64.20;;;;;;6264617;22;20004;-59
2022/01/29 08:34:50;;;;;;;6.40;4.25;;;9.70;64.10;;;;;;6262665;22;20407;-58
2022/01/29 08:37:16;;;;;;;3.65;2.10;;;9.70;64.00;;;;;;6265508;22;20004;-59
2022/01/29 08:39:43;;;;;;;3.33;2.20;;;9.70;64.00;;;;;;6264438;22;20004;-57
2022/01/29 08:42:09;;;;;;;2.65;1.70;;;9.80;64.00;;;;;;6266473;22;20011;-59
2022/01/29 08:44:36;;;;;;;2.33;1.70;;;9.80;64.00;;;;;;6264094;22;20317;-57
2022/01/29 08:47:02;;;;;;;2.60;1.73;;;9.80;63.90;;;;;;6263458;22;20002;-59
2022/01/29 08:49:29;;;;;;;4.90;2.35;;;9.80;64.00;;;;;;6265440;22;19992;-59
2022/01/29 08:51:55;;;;;;;5.03;2.78;;;9.80;63.90;;;;;;6264962;22;20019;-60
2022/01/29 08:54:21;;;;;;;8.65;4.10;;;9.90;64.00;;;;;;6263071;22;20004;-58
2022/01/29 08:56:47;;;;;;;3.00;2.42;;;9.90;63.90;;;;;;6262444;22;20007;-58
2022/01/29 08:59:14;;;;;;;6.32;3.33;;;9.90;63.80;;;;;;6264241;22;19996;-59
2022/01/29 09:01:40;;;;;;;4.72;3.03;;;9.90;63.80;;;;;;6236214;22;20067;-57
2022/01/29 09:04:06;;;;;;;4.72;2.88;;;10.00;63.80;;;;;;6237345;22;20490;-57
2022/01/29 09:06:32;;;;;;;6.47;3.90;;;10.00;63.70;;;;;;6263949;22;19995;-59
2022/01/29 09:08:59;;;;;;;8.90;5.90;;;10.00;63.60;;;;;;6264879;22;20010;-58
2022/01/29 09:11:26;;;;;;;8.05;5.18;;;10.00;63.50;;;;;;6265504;22;19992;-57
2022/01/29 09:13:52;;;;;;;9.15;5.40;;;10.10;63.50;;;;;;6235293;22;19999;-59
2022/01/29 09:16:18;;;;;;;7.20;4.75;;;10.10;63.60;;;;;;6265065;22;20467;-58
2022/01/29 09:18:45;;;;;;;6.68;4.50;;;10.10;63.50;;;;;;6235727;22;20012;-59
2022/01/29 09:21:12;;;;;;;4.95;3.28;;;10.20;63.40;;;;;;6265006;22;20269;-58
2022/01/29 09:23:38;;;;;;;5.88;3.40;;;10.20;63.30;;;;;;6263696;22;20344;-58
2022/01/29 09:26:05;;;;;;;9.20;5.43;;;10.20;63.20;;;;;;6236765;22;20027;-57
2022/01/29 09:28:31;;;;;;;6.78;5.10;;;10.20;63.10;;;;;;6263387;22;20004;-57
2022/01/29 09:30:57;;;;;;;2.28;2.00;;;10.30;63.10;;;;;;6264424;22;20321;-58
2022/01/29 09:33:23;;;;;;;2.75;2.20;;;10.30;63.10;;;;;;6264306;22;20433;-59
2022/01/29 09:35:50;;;;;;;3.55;1.85;;;10.40;63.10;;;;;;6233741;22;19995;-57
2022/01/29 09:38:16;;;;;;;5.15;2.20;;;10.40;63.00;;;;;;6264300;22;20010;-59
2022/01/29 09:40:43;;;;;;;1.92;1.40;;;10.40;62.90;;;;;;6265745;22;20011;-57
2022/01/29 09:43:11;;;;;;;1.20;1.10;;;10.40;62.90;;;;;;6262464;22;20007;-59
2022/01/29 09:45:38;;;;;;;1.55;0.98;;;10.50;62.90;;;;;;6263863;22;19996;-58
2022/01/29 09:48:05;;;;;;;1.35;1.10;;;10.50;62.70;;;;;;6262603;22;20050;-59
2022/01/29 09:50:38;;;;;;;1.55;1.10;;;10.50;62.60;;;;;;6260582;22;20016;-58
2022/01/29 09:53:06;;;;;;;2.67;1.40;;;10.60;62.60;;;;;;6264449;22;20459;-59
2022/01/29 09:55:33;;;;;;;5.18;1.50;;;10.60;62.50;;;;;;6263465;22;20004;-59
2022/01/29 09:57:59;;;;;;;1.42;1.10;;;10.70;62.50;;;;;;6262575;22;20004;-59
2022/01/29 10:00:26;;;;;;;2.33;1.52;;;10.70;62.60;;;;;;6263739;22;20007;-59
2022/01/29 10:03:11;;;;;;;2.92;1.60;;;10.70;62.50;;;;;;6264765;22;20008;-57
2022/01/29 10:05:41;;;;;;;;;;;10.80;62.50;;;;;;6265014;22;20000;-59
2022/01/29 10:08:09;;;;;;;1.45;1.15;;;10.90;62.70;;;;;;6265139;22;19899;-59
2022/01/29 10:10:40;;;;;;;1.23;1.00;;;10.90;62.30;;;;;;6263500;22;20495;-58
2022/01/29 10:13:29;;;;;;;1.38;1.10;;;11.00;62.10;;;;;;6263363;22;20022;-59
2022/01/29 10:16:14;;;;;;;5.97;1.10;;;11.00;62.00;;;;;;6263256;22;20004;-59
2022/01/29 10:18:42;;;;;;;2.08;1.10;;;11.00;61.80;;;;;;6274276;22;19996;-59
2022/01/29 10:21:16;;;;;;;1.73;0.93;;;11.00;61.80;;;;;;6236335;22;20031;-57
2022/01/29 10:23:44;;;;;;;7.00;3.50;;;11.10;61.80;;;;;;6274121;22;20004;-59
2022/01/29 10:26:24;;;;;;;16.38;9.32;;;11.10;61.70;;;;;;6237272;22;19999;-57
2022/01/29 10:28:54;;;;;;;3.92;2.63;;;11.20;61.70;;;;;;6272807;22;20312;-58
2022/01/29 10:31:20;;;;;;;2.00;1.40;;;11.30;61.50;;;;;;6264431;22;20324;-58
2022/01/29 10:33:46;;;;;;;1.55;1.10;;;11.30;61.40;;;;;;6235802;22;20015;-59
2022/01/29 10:36:18;;;;;;;1.80;1.48;;;11.30;61.40;;;;;;6261209;22;20416;-58
2022/01/29 10:38:45;;;;;;;2.50;1.67;;;11.40;61.30;;;;;;6263862;22;20011;-60
2022/01/29 10:41:28;;;;;;;2.25;1.80;;;11.40;61.20;;;;;;6236166;22;20006;-59
2022/01/29 10:46:48;;;;;;;5.38;3.70;;;11.50;60.60;;;;;;6261503;22;20027;-59
2022/01/29 10:49:24;;;;;;;9.00;5.40;;;11.50;60.70;;;;;;6273293;22;20002;-59
2022/01/29 10:52:17;;;;;;;3.25;2.05;;;11.60;60.70;;;;;;6265134;22;20011;-58
2022/01/29 10:54:46;;;;;;;2.55;1.52;;;11.60;60.60;;;;;;6257166;22;20019;-57
2022/01/29 10:57:17;;;;;;;4.50;4.07;;;11.70;60.60;;;;;;6263476;22;20320;-59
2022/01/29 10:59:48;;;;;;;2.08;1.80;;;11.70;60.30;;;;;;6262568;22;20451;-59
2022/01/29 11:02:15;;;;;;;4.57;2.78;;;11.70;60.00;;;;;;6262512;22;19999;-59
2022/01/29 11:04:42;;;;;;;1.92;1.50;;;11.80;60.10;;;;;;6262897;22;20011;-57
2022/01/29 11:07:15;;;;;;;2.60;1.27;;;11.80;59.90;;;;;;6262742;22;20433;-56
2022/01/29 11:09:43;;;;;;;2.88;1.75;;;11.80;59.80;;;;;;6261315;22;20254;-57
2022/01/29 11:12:12;;;;;;;1.45;1.10;;;11.90;59.80;;;;;;6261339;22;20008;-59
2022/01/29 11:14:40;;;;;;;2.13;1.20;;;11.80;59.70;;;;;;6261633;22;20000;-59
2022/01/29 11:17:08;;;;;;;2.22;1.00;;;11.90;59.60;;;;;;6234930;22;20008;-57
2022/01/29 11:19:34;;;;;;;0.82;0.70;;;11.90;59.60;;;;;;6263479;22;19999;-58
2022/01/29 11:22:06;;;;;;;8.88;2.95;;;11.90;59.50;;;;;;6264195;22;19996;-57
2022/01/29 11:24:36;;;;;;;2.13;1.00;;;12.00;59.50;;;;;;6258350;22;20004;-59
2022/01/29 11:27:17;;;;;;;1.67;0.85;;;12.00;59.50;;;;;;6257971;22;20003;-59
2022/01/29 11:29:57;;;;;;;2.67;0.93;;;12.00;59.40;;;;;;6258042;22;20011;-59
2022/01/29 11:32:32;;;;;;;1.83;1.30;;;12.00;59.40;;;;;;6261248;22;20004;-58
2022/01/29 11:35:12;;;;;;;3.22;1.65;;;12.10;59.40;;;;;;6274851;22;19996;-59
2022/01/29 11:37:43;;;;;;;1.98;1.38;;;12.10;59.40;;;;;;6265042;22;20016;-58
2022/01/29 11:40:17;;;;;;;1.58;1.20;;;12.20;59.60;;;;;;6264466;22;19992;-59
2022/01/29 11:43:23;;;;;;;0.77;0.70;;;12.20;59.50;;;;;;6237123;22;20381;-59
2022/01/29 11:46:15;;;;;;;0.70;0.70;;;12.20;59.30;;;;;;6217624;22;20019;-59
2022/01/29 11:48:55;;;;;;;1.70;1.25;;;12.20;59.10;;;;;;6237348;22;20027;-59
2022/01/29 11:51:40;;;;;;;2.75;2.00;;;12.30;58.90;;;;;;6236407;22;20016;-57
2022/01/29 11:54:07;;;;;;;5.25;3.03;;;12.30;58.80;;;;;;6231212;22;20019;-59
2022/01/29 11:56:40;;;;;;;3.95;2.38;;;12.30;58.80;;;;;;6230154;22;20007;-59
2022/01/29 11:59:28;;;;;;;0.80;0.80;;;12.30;58.80;;;;;;6259557;22;20015;-60
2022/01/29 12:01:57;;;;;;;0.90;0.40;;;12.30;58.80;;;;;;6263527;22;20008;-57
2022/01/29 12:04:55;;;;;;;0.57;0.40;;;12.30;58.90;;;;;;6263324;22;20014;-59
2022/01/29 12:07:36;;;;;;;0.93;0.50;;;12.30;59.10;;;;;;6266565;22;20702;-59
2022/01/29 12:10:13;;;;;;;2.50;0.82;;;12.30;59.20;;;;;;6275432;22;19991;-57
2022/01/29 12:12:41;;;;;;;0.85;0.40;;;12.30;59.30;;;;;;6264958;22;20012;-58
2022/01/29 12:15:10;;;;;;;1.35;0.82;;;12.40;59.40;;;;;;6237574;22;20004;-59
2022/01/29 12:17:49;;;;;;;0.68;0.45;;;12.40;59.50;;;;;;6266188;22;20046;-59
2022/01/29 12:20:18;;;;;;;0.40;0.32;;;12.40;59.50;;;;;;6276564;22;20004;-59
2022/01/29 12:22:45;;;;;;;2.05;0.30;;;12.40;59.60;;;;;;6265391;22;20333;-58
2022/01/29 12:25:15;;;;;;;0.30;0.20;;;12.40;59.60;;;;;;6265800;22;20456;-58
2022/01/29 12:27:56;;;;;;;1.33;0.40;;;12.40;59.60;;;;;;6263788;22;19999;-60
2022/01/29 12:30:22;;;;;;;0.30;0.30;;;12.50;59.60;;;;;;6252804;22;20018;-59
2022/01/29 12:32:56;;;;;;;0.30;0.20;;;12.50;59.70;;;;;;6264679;22;20014;-57
2022/01/29 12:35:51;;;;;;;1.98;0.20;;;12.50;59.80;;;;;;6266319;22;20007;-57
2022/01/29 12:38:41;;;;;;;0.45;0.20;;;12.60;59.90;;;;;;6265779;22;20015;-59
2022/01/29 12:41:24;;;;;;;0.28;0.20;;;12.60;60.00;;;;;;6276692;22;20015;-57
2022/01/29 12:44:01;;;;;;;0.47;0.17;;;12.60;59.80;;;;;;6238951;22;20011;-59
2022/01/29 12:46:29;;;;;;;0.45;0.22;;;12.70;59.80;;;;;;6260567;22;19999;-57
2022/01/29 12:49:11;;;;;;;0.73;0.28;;;12.70;59.80;;;;;;6264697;22;19996;-58
2022/01/29 12:51:56;;;;;;;0.40;0.20;;;12.70;59.80;;;;;;6265894;22;20016;-59
2022/01/29 12:54:25;;;;;;;0.85;0.30;;;12.70;59.90;;;;;;6271164;22;20000;-58
2022/01/29 12:56:51;;;;;;;0.20;0.20;;;12.70;59.80;;;;;;6263380;22;20008;-59
2022/01/29 12:59:18;;;;;;;0.57;0.30;;;12.80;59.80;;;;;;6262383;22;19999;-59
2022/01/29 13:01:46;;;;;;;0.40;0.20;;;12.80;59.80;;;;;;6266049;22;20000;-59
2022/01/29 13:04:19;;;;;;;0.30;0.10;;;12.80;59.70;;;;;;6263801;22;20004;-57
2022/01/29 13:06:47;;;;;;;0.70;0.20;;;12.80;59.50;;;;;;6274091;22;20254;-58
2022/01/29 13:09:19;;;;;;;1.98;0.50;;;12.90;59.30;;;;;;6265605;22;19999;-60
2022/01/29 13:11:46;;;;;;;0.73;0.60;;;12.90;59.10;;;;;;6264211;22;19996;-60